CheckWX is a tool to help pilots better visualize weather data.  It is not intended as a substitute for an official pre-flight weather briefing.

07:33:56 UTC

LTAT TAF
Malatya Erhaç Airport
Malatya, Turkey
TAF LTAT 190440Z 1906/2006 VRB02KT CAVOK BECMG 1906/1908 SCT040 BKN100 TEMPO 1912/1916 18013G23KT -TSRA FEW027CB BKN035 PROB40 TEMPO 1916/1919 29015G25KT -TSRA FEW027CB BKN035 BECMG 1921/1923 CAVOK

Jun-19@
06:00 UTC

Jun-19 @ 06:00 UTC

Jun-20@
06:00 UTC

Jun-20 @ 06:00 UTC

TAF LTAT 190440Z 1906/2006 VRB02KT CAVOK
Wind
  • Variable at 2 KTS
Conditions
No significant weather
Cloud Levels
  • No significant clouds

Jun-19@
06:00 UTC

Jun-19 @ 06:00 UTC

Jun-19@
21:00 UTC

Jun-19 @ 21:00 UTC

BECMG 1906/1908 SCT040 BKN100

Becoming

Becoming Conditions expected by Wed, Jun 19, 2019 @ 08:00 UTC

Wind
  • Variable at 2 KTS
Conditions
No significant weather
Cloud Levels
  • Scattered at 4,000' AGL
  • Broken at 10,000' AGL

Jun-19@
12:00 UTC

Jun-19 @ 12:00 UTC

Jun-19@
16:00 UTC

Jun-19 @ 16:00 UTC

TEMPO 1912/1916 18013G23KT -TSRA FEW027CB BKN035

Temporary

Temporary Changes expected for less than half the time period

Wind
  • 180° at 13 KTS
  • {Gusting to 23 KTS
Conditions
Light Thunderstorm, Light Rain
Cloud Levels
  • Few at 2,700' AGL
  • Broken at 3,500' AGL

Jun-19@
16:00 UTC

Jun-19 @ 16:00 UTC

Jun-19@
19:00 UTC

Jun-19 @ 19:00 UTC

PROB40 TEMPO 1916/1919 29015G25KT -TSRA FEW027CB BKN035

Temporary - 40% Likelihood

Temporary - 40% Likelihood during this time.

Wind
  • 290° at 15 KTS
  • {Gusting to 25 KTS
Conditions
Light Thunderstorm, Light Rain
Cloud Levels
  • Few at 2,700' AGL
  • Broken at 3,500' AGL

Jun-19@
21:00 UTC

Jun-19 @ 21:00 UTC

Jun-20@
06:00 UTC

Jun-20 @ 06:00 UTC

BECMG 1921/1923 CAVOK

Becoming

Becoming Conditions expected by Wed, Jun 19, 2019 @ 23:00 UTC

Wind
  • Variable at 2 KTS
Conditions
No significant weather
Cloud Levels
  • No significant clouds